Time;durP1;ratioP1;P1;durP2;ratioP2;P2;SDS_P1;SDS_P2;PMS_P1;PMS_P2;Temp;Humidity;BMP_temperature;BMP_pressure;BME280_temperature;BME280_humidity;BME280_pressure;Samples;Min_cycle;Max_cycle;Signal;HPM_P1;HPM_P2
2023/06/08 00:01:35;;;;;;;1.88;1.67;;;;;;;16.50;62.72;102065.19;5012510;28;20076;-80
2023/06/08 00:04:05;;;;;;;0.00;0.00;;;;;;;16.43;63.37;102067.09;5011449;28;20061;-77
2023/06/08 00:06:33;;;;;;;1.17;0.57;;;;;;;16.43;62.50;102064.44;5009431;28;20130;-79
2023/06/08 00:09:01;;;;;;;0.82;0.82;;;;;;;16.40;63.21;102066.31;5011595;28;20537;-79
2023/06/08 00:11:28;;;;;;;0.10;0.10;;;;;;;16.33;62.82;102062.91;5012175;28;20038;-79
2023/06/08 00:13:55;;;;;;;0.43;0.43;;;;;;;16.30;63.91;102061.19;5013097;28;20034;-78
2023/06/08 00:16:21;;;;;;;1.25;0.63;;;;;;;16.29;63.91;102061.25;5011737;28;20018;-78
2023/06/08 00:18:49;;;;;;;0.10;0.10;;;;;;;16.25;62.91;102059.53;5013297;28;20033;-79
2023/06/08 00:21:16;;;;;;;0.28;0.28;;;;;;;16.19;64.17;102052.56;5012794;28;20021;-79
2023/06/08 00:23:42;;;;;;;0.10;0.10;;;;;;;16.12;64.80;102050.94;5011953;28;20109;-78
2023/06/08 00:26:08;;;;;;;0.10;0.10;;;;;;;16.10;64.05;102059.00;5012753;28;20562;-77
2023/06/08 00:28:34;;;;;;;0.10;0.10;;;;;;;16.09;64.53;102056.38;5013511;28;20076;-78
2023/06/08 00:31:01;;;;;;;0.10;0.10;;;;;;;16.07;64.55;102059.06;5015567;28;20087;-79
2023/06/08 00:33:27;;;;;;;0.10;0.10;;;;;;;16.04;65.28;102061.81;5016618;28;20030;-79
2023/06/08 00:35:54;;;;;;;0.15;0.15;;;;;;;16.05;64.91;102060.03;5017008;28;20116;-79
2023/06/08 00:38:20;;;;;;;0.25;0.25;;;;;;;16.02;65.17;102050.28;5028612;28;20521;-77
2023/06/08 00:40:46;;;;;;;0.55;0.55;;;;;;;16.03;65.00;102052.03;5018108;28;20026;-78
2023/06/08 00:43:13;;;;;;;0.10;0.10;;;;;;;15.97;64.26;102041.50;5016397;28;20049;-79
2023/06/08 00:45:39;;;;;;;0.52;0.52;;;;;;;15.93;65.66;102045.16;5022645;28;20042;-78
2023/06/08 00:48:07;;;;;;;0.38;0.38;;;;;;;15.95;65.06;102051.31;5017345;28;20022;-78
2023/06/08 00:50:33;;;;;;;0.10;0.10;;;;;;;15.93;65.08;102045.16;5012921;28;20025;-79
2023/06/08 00:53:00;;;;;;;0.10;0.10;;;;;;;15.90;64.81;102038.09;5013947;28;20030;-79
2023/06/08 00:55:29;;;;;;;0.57;0.57;;;;;;;15.87;64.18;102040.81;5015534;28;20045;-79
2023/06/08 00:57:58;;;;;;;0.55;0.55;;;;;;;15.77;64.99;102032.09;5013029;28;20057;-80
2023/06/08 01:00:27;;;;;;;0.10;0.10;;;;;;;15.76;65.25;102030.34;5015007;28;20037;-79
2023/06/08 01:02:55;;;;;;;0.10;0.10;;;;;;;15.77;65.37;102033.91;5014264;28;20026;-79
2023/06/08 01:05:22;;;;;;;0.20;0.20;;;;;;;15.72;64.51;102028.66;5012655;28;20065;-78
2023/06/08 01:13:16;;;;;;;0.20;0.20;;;;;;;15.73;65.07;102034.91;5089259;27;20389;-80
2023/06/08 01:15:48;;;;;;;0.00;0.00;;;;;;;15.66;65.55;102021.69;5088423;28;20436;-79
2023/06/08 01:18:17;;;;;;;;;;;;;;;15.77;65.25;102017.88;5088767;28;20032;-79
2023/06/08 01:24:11;;;;;;;0.10;0.10;;;;;;;15.64;65.66;102023.50;5110263;27;20395;-78
2023/06/08 01:26:40;;;;;;;0.10;0.10;;;;;;;15.58;65.72;102028.09;5085774;28;20039;-78
2023/06/08 01:29:08;;;;;;;0.10;0.10;;;;;;;15.57;65.70;102019.19;5081661;28;20032;-78
2023/06/08 01:31:34;;;;;;;0.30;0.30;;;;;;;15.55;65.52;102017.47;5092306;28;20405;-80
2023/06/08 01:34:01;;;;;;;0.13;0.13;;;;;;;15.52;65.30;102008.59;5091472;28;20094;-79
2023/06/08 01:39:33;;;;;;;0.52;0.52;;;;;;;15.45;65.41;102012.34;5074055;28;20383;-79
2023/06/08 01:42:04;;;;;;;0.10;0.10;;;;;;;15.43;65.65;102014.16;5069211;28;20079;-79
2023/06/08 01:44:36;;;;;;;0.10;0.10;;;;;;;15.40;65.85;102014.22;5073872;28;20028;-80
2023/06/08 01:47:05;;;;;;;0.10;0.10;;;;;;;15.39;65.00;102006.25;5069108;28;20025;-79
2023/06/08 01:49:34;;;;;;;0.55;0.55;;;;;;;15.34;65.87;102015.25;5051987;28;20025;-79
2023/06/08 01:52:02;;;;;;;0.20;0.20;;;;;;;15.33;65.55;102010.81;5052490;28;20029;-80
2023/06/08 01:54:28;;;;;;;0.10;0.10;;;;;;;15.32;66.33;102016.19;5056653;28;20099;-79
2023/06/08 01:56:54;;;;;;;0.10;0.10;;;;;;;15.35;65.63;102017.00;5054135;28;20521;-79
2023/06/08 01:59:20;;;;;;;0.10;0.10;;;;;;;15.29;66.18;102008.22;5060844;28;20044;-78
2023/06/08 02:01:46;;;;;;;0.10;0.10;;;;;;;15.31;66.11;102009.94;5054118;28;20052;-79
2023/06/08 02:04:12;;;;;;;0.03;0.03;;;;;;;15.33;65.81;102009.94;5058697;28;20064;-78
2023/06/08 02:06:39;;;;;;;0.10;0.10;;;;;;;15.28;65.66;102011.84;5070902;28;20048;-79
2023/06/08 02:09:05;;;;;;;0.00;0.00;;;;;;;15.30;65.52;102007.31;5064241;28;20052;-79
2023/06/08 02:11:32;;;;;;;0.10;0.10;;;;;;;15.23;66.29;102006.59;5070843;28;20025;-79
2023/06/08 02:13:58;;;;;;;1.27;0.65;;;;;;;15.20;65.73;102007.53;5071011;28;20035;-79
2023/06/08 02:16:24;;;;;;;0.13;0.13;;;;;;;15.18;65.76;102014.69;5073987;28;20025;-80
2023/06/08 02:18:51;;;;;;;0.10;0.10;;;;;;;15.09;66.32;102009.53;5059438;28;20020;-79
2023/06/08 02:21:17;;;;;;;2.55;0.80;;;;;;;15.14;65.61;102006.75;5055276;28;20566;-79
2023/06/08 02:23:44;;;;;;;0.20;0.20;;;;;;;15.02;66.14;102002.56;5065833;28;20037;-79
2023/06/08 02:26:10;;;;;;;0.10;0.10;;;;;;;15.02;65.98;102008.75;5071764;28;20032;-78
2023/06/08 02:28:36;;;;;;;0.10;0.10;;;;;;;14.96;66.05;102013.34;5062575;28;20023;-76
2023/06/08 02:31:03;;;;;;;0.00;0.00;;;;;;;14.93;65.94;102018.72;5065801;28;20053;-77
2023/06/08 02:33:29;;;;;;;0.43;0.43;;;;;;;14.93;65.73;102014.28;5062155;28;20398;-78
2023/06/08 02:35:55;;;;;;;0.10;0.10;;;;;;;14.90;65.83;102008.13;5052354;28;20033;-79
2023/06/08 02:38:22;;;;;;;2.40;0.63;;;;;;;14.85;65.98;102016.22;5058364;28;20067;-78
2023/06/08 02:40:48;;;;;;;0.10;0.10;;;;;;;14.88;65.47;102009.03;5066588;28;20486;-78
2023/06/08 02:43:15;;;;;;;0.00;0.00;;;;;;;14.80;66.46;102013.63;5061404;28;20521;-77
2023/06/08 02:45:41;;;;;;;0.10;0.10;;;;;;;14.85;65.85;102016.22;5051745;28;20021;-77
2023/06/08 02:48:07;;;;;;;0.22;0.22;;;;;;;14.83;65.80;102016.25;5058771;28;20028;-78
2023/06/08 02:50:33;;;;;;;0.10;0.10;;;;;;;14.75;65.73;102014.66;5052572;28;20029;-78
2023/06/08 02:52:59;;;;;;;0.20;0.20;;;;;;;14.74;65.44;102020.88;5053342;28;20037;-78
2023/06/08 02:55:28;;;;;;;0.10;0.10;;;;;;;14.68;65.46;102014.75;5050150;28;20044;-78
2023/06/08 02:57:55;;;;;;;0.10;0.10;;;;;;;14.68;65.46;102011.22;5045068;28;20029;-78
2023/06/08 03:00:21;;;;;;;0.30;0.30;;;;;;;14.68;65.31;102020.09;5050083;28;20086;-76
2023/06/08 03:02:47;;;;;;;0.10;0.10;;;;;;;14.64;65.33;102014.81;5052471;28;20025;-76
2023/06/08 03:05:13;;;;;;;0.10;0.10;;;;;;;14.63;65.36;102024.59;5047587;28;20029;-77
2023/06/08 03:07:40;;;;;;;0.55;0.55;;;;;;;14.62;65.62;102019.31;5043236;28;20472;-77
2023/06/08 03:10:07;;;;;;;0.10;0.10;;;;;;;14.56;66.06;102026.47;5044711;28;20060;-76
2023/06/08 03:12:34;;;;;;;0.10;0.10;;;;;;;14.63;65.28;102026.38;5037706;28;20034;-78
2023/06/08 03:15:00;;;;;;;0.10;0.10;;;;;;;14.54;65.94;102017.66;5043932;28;20032;-77
2023/06/08 03:17:27;;;;;;;0.10;0.10;;;;;;;14.59;65.37;102020.22;5042617;28;20089;-77
2023/06/08 03:19:53;;;;;;;0.20;0.20;;;;;;;14.57;65.29;102014.91;5040548;28;20083;-76
2023/06/08 03:22:19;;;;;;;0.03;0.03;;;;;;;14.58;65.44;102007.81;5035646;28;20082;-77
2023/06/08 03:24:49;;;;;;;2.22;0.68;;;;;;;14.54;65.50;102004.31;5042830;28;20024;-78
2023/06/08 03:27:16;;;;;;;0.20;0.20;;;;;;;14.54;65.22;102011.41;5037536;28;20064;-77
2023/06/08 03:29:42;;;;;;;0.40;0.40;;;;;;;14.47;65.92;102017.78;5035971;28;20017;-78
2023/06/08 03:32:09;;;;;;;0.10;0.10;;;;;;;14.49;65.63;102014.19;5039234;28;20029;-77
2023/06/08 03:34:37;;;;;;;0.10;0.10;;;;;;;14.49;65.99;102016.84;5041537;28;20033;-78
2023/06/08 03:37:03;;;;;;;0.13;0.13;;;;;;;14.53;65.23;102020.34;5034434;28;20061;-77
2023/06/08 03:39:29;;;;;;;0.10;0.10;;;;;;;14.49;65.80;102019.53;5035245;28;20082;-77
2023/06/08 03:41:55;;;;;;;0.00;0.00;;;;;;;14.54;65.37;102014.97;5034208;28;20025;-77
2023/06/08 03:44:21;;;;;;;0.10;0.10;;;;;;;14.55;65.49;102013.19;5035171;28;20032;-77
2023/06/08 03:46:48;;;;;;;0.30;0.30;;;;;;;14.56;65.22;102012.28;5034295;28;20040;-78
2023/06/08 03:49:14;;;;;;;0.10;0.10;;;;;;;14.50;66.00;102010.59;5041475;28;20029;-78
2023/06/08 03:51:40;;;;;;;0.10;0.10;;;;;;;14.53;65.59;102007.88;5035741;28;20022;-77
2023/06/08 03:54:06;;;;;;;0.00;0.00;;;;;;;14.53;65.61;102007.00;5035921;28;20029;-78
2023/06/08 03:56:32;;;;;;;0.00;0.00;;;;;;;14.50;65.84;102015.91;5034731;28;20029;-78
2023/06/08 03:58:59;;;;;;;0.10;0.10;;;;;;;14.44;66.57;102010.69;5035364;28;20024;-78
2023/06/08 04:01:27;;;;;;;1.75;1.65;;;;;;;14.50;65.78;102009.72;5048826;28;20025;-77
2023/06/08 04:03:53;;;;;;;0.10;0.10;;;;;;;14.52;65.84;102018.59;5050046;28;20055;-77
2023/06/08 04:06:19;;;;;;;0.17;0.17;;;;;;;14.51;65.81;102023.03;5043334;28;20029;-78
2023/06/08 04:08:45;;;;;;;0.10;0.10;;;;;;;14.54;65.93;102017.66;5036191;28;20040;-77
2023/06/08 04:11:12;;;;;;;1.95;0.65;;;;;;;14.57;65.39;102022.91;5040440;28;20034;-78
2023/06/08 04:13:39;;;;;;;0.10;0.10;;;;;;;14.59;65.48;102024.69;5034786;28;20053;-76
2023/06/08 04:16:08;;;;;;;0.00;0.00;;;;;;;14.66;65.67;102023.69;5034726;28;20025;-78
2023/06/08 04:18:35;;;;;;;0.10;0.10;;;;;;;14.73;64.88;102022.69;5040630;28;20025;-78
2023/06/08 04:21:02;;;;;;;0.43;0.43;;;;;;;14.64;65.65;102015.69;5039211;28;20075;-78
2023/06/08 04:23:28;;;;;;;0.10;0.10;;;;;;;14.69;65.17;102015.63;5033053;28;20029;-78
2023/06/08 04:25:54;;;;;;;0.00;0.00;;;;;;;14.71;65.01;102017.34;5034613;28;20025;-78
2023/06/08 04:28:22;;;;;;;0.10;0.10;;;;;;;14.70;65.37;102006.72;5039669;28;20126;-78
2023/06/08 04:30:49;;;;;;;0.10;0.10;;;;;;;14.77;64.89;102010.16;5042372;28;20032;-78
2023/06/08 04:33:16;;;;;;;0.10;0.10;;;;;;;14.78;65.16;102011.91;5039379;28;20106;-78
2023/06/08 04:35:42;;;;;;;0.28;0.28;;;;;;;14.81;65.17;102010.06;5047014;28;20555;-78
2023/06/08 04:38:16;;;;;;;0.10;0.10;;;;;;;14.86;65.67;102000.19;5045880;28;20033;-77
2023/06/08 04:40:48;;;;;;;0.10;0.10;;;;;;;14.92;65.94;102001.00;5041941;28;20025;-77
2023/06/08 04:43:15;;;;;;;0.40;0.40;;;;;;;14.92;65.68;101999.19;5047728;28;20025;-77
2023/06/08 04:45:43;;;;;;;0.10;0.10;;;;;;;15.01;65.36;101995.47;5039974;28;20082;-77
2023/06/08 04:48:10;;;;;;;0.10;0.10;;;;;;;15.10;64.84;102002.41;5040534;28;20044;-78
2023/06/08 04:50:37;;;;;;;0.10;0.10;;;;;;;15.12;65.17;102004.13;5035634;28;20025;-78
2023/06/08 04:53:05;;;;;;;0.03;0.03;;;;;;;15.20;64.96;102002.19;5043708;28;20044;-78
2023/06/08 04:55:31;;;;;;;0.00;0.00;;;;;;;15.28;64.71;102004.69;5038613;28;20032;-79
2023/06/08 04:57:57;;;;;;;1.75;0.90;;;;;;;15.35;64.49;102006.31;5048996;28;20550;-77
2023/06/08 05:00:23;;;;;;;0.10;0.10;;;;;;;15.35;64.37;102000.09;5039268;28;20134;-78
2023/06/08 05:02:49;;;;;;;2.08;0.95;;;;;;;15.27;64.57;102000.25;5034510;28;20394;-77
2023/06/08 05:05:15;;;;;;;0.57;0.57;;;;;;;15.29;64.32;102000.22;5033534;28;20033;-78
2023/06/08 05:07:43;;;;;;;0.17;0.17;;;;;;;15.26;64.28;101990.47;5035847;28;20059;-77
2023/06/08 05:10:09;;;;;;;0.10;0.10;;;;;;;15.20;64.55;101991.50;5041185;28;20029;-77
2023/06/08 05:12:35;;;;;;;0.32;0.32;;;;;;;15.24;64.52;101994.09;5033818;28;20058;-77
2023/06/08 05:15:02;;;;;;;0.10;0.10;;;;;;;15.25;64.56;101993.19;5034451;28;20636;-77
2023/06/08 05:17:28;;;;;;;0.10;0.10;;;;;;;15.24;64.54;101988.75;5045051;28;20086;-78
2023/06/08 05:19:54;;;;;;;0.15;0.15;;;;;;;15.29;64.30;101979.75;5038220;28;20079;-79
2023/06/08 05:22:20;;;;;;;0.45;0.45;;;;;;;15.32;64.58;101982.34;5044872;28;20287;-79
2023/06/08 05:24:46;;;;;;;0.03;0.03;;;;;;;15.39;64.84;101985.78;5045061;28;20221;-77
2023/06/08 05:27:13;;;;;;;0.10;0.10;;;;;;;15.41;64.73;101988.41;5055424;28;20080;-80
2023/06/08 05:29:39;;;;;;;0.10;0.10;;;;;;;15.48;64.41;101985.56;5036940;28;20061;-79
2023/06/08 05:32:06;;;;;;;0.10;0.10;;;;;;;15.53;64.37;101983.66;5047200;28;20103;-78
2023/06/08 05:34:32;;;;;;;0.60;0.60;;;;;;;15.64;64.18;101986.09;5056156;28;20505;-78
2023/06/08 05:36:58;;;;;;;0.10;0.10;;;;;;;15.60;63.74;101983.53;5051809;28;20445;-78
2023/06/08 05:39:24;;;;;;;0.10;0.10;;;;;;;15.65;63.82;101978.94;5038335;28;20436;-77
2023/06/08 05:41:50;;;;;;;0.75;0.75;;;;;;;15.69;63.77;101984.19;5037968;28;20383;-77
2023/06/08 05:44:16;;;;;;;1.10;0.35;;;;;;;15.70;63.83;101974.38;5045306;28;20487;-75
2023/06/08 05:46:42;;;;;;;0.57;0.57;;;;;;;15.72;63.64;101975.22;5036568;28;20037;-79
2023/06/08 05:49:08;;;;;;;0.20;0.20;;;;;;;15.77;63.79;101972.44;5043091;28;20025;-79
2023/06/08 05:51:35;;;;;;;0.20;0.20;;;;;;;15.80;64.11;101967.91;5039147;28;20035;-79
2023/06/08 05:54:01;;;;;;;1.52;0.75;;;;;;;15.76;63.99;101970.69;5044978;28;20587;-79
2023/06/08 05:56:27;;;;;;;2.50;1.50;;;;;;;15.81;63.53;101969.69;5046256;28;20448;-79
2023/06/08 05:58:53;;;;;;;0.50;0.50;;;;;;;15.83;63.61;101975.00;5061674;28;20072;-78
2023/06/08 06:01:20;;;;;;;1.35;1.25;;;;;;;15.78;63.08;101977.75;5048294;28;20041;-80
2023/06/08 06:03:47;;;;;;;0.25;0.25;;;;;;;15.87;62.94;101978.50;5057062;28;20036;-81
2023/06/08 06:06:13;;;;;;;0.40;0.40;;;;;;;15.85;63.22;101982.06;5051923;28;20033;-82
2023/06/08 06:08:39;;;;;;;0.68;0.68;;;;;;;15.85;63.14;101976.72;5034569;28;20027;-78
2023/06/08 06:11:05;;;;;;;0.17;0.17;;;;;;;15.83;63.40;101978.56;5032276;28;20025;-76
2023/06/08 06:13:32;;;;;;;0.55;0.55;;;;;;;15.83;63.14;101975.00;5041434;28;20025;-76
2023/06/08 06:15:58;;;;;;;0.75;0.63;;;;;;;15.82;63.59;101976.78;5043260;28;20031;-76
2023/06/08 06:18:24;;;;;;;0.10;0.10;;;;;;;15.88;63.51;101982.94;5054313;28;20028;-78
2023/06/08 06:20:50;;;;;;;0.85;0.85;;;;;;;15.87;63.95;101981.16;5054120;28;20029;-79
2023/06/08 06:23:17;;;;;;;0.65;0.30;;;;;;;15.96;63.55;101980.94;5053889;28;20613;-78
2023/06/08 06:25:43;;;;;;;0.10;0.10;;;;;;;16.00;63.55;101978.16;5050480;28;20036;-78
2023/06/08 06:28:10;;;;;;;0.10;0.10;;;;;;;16.09;63.85;101977.03;5056513;28;20024;-78
2023/06/08 06:30:37;;;;;;;0.20;0.20;;;;;;;16.26;63.79;101967.69;5055676;28;20024;-77
2023/06/08 06:33:03;;;;;;;0.10;0.10;;;;;;;16.38;63.38;101969.19;5057183;28;20490;-78
2023/06/08 06:35:29;;;;;;;0.38;0.38;;;;;;;16.59;62.76;101968.59;5057578;28;20033;-78
2023/06/08 06:37:55;;;;;;;0.20;0.20;;;;;;;16.71;62.19;101963.84;5055324;28;20028;-78
2023/06/08 06:40:22;;;;;;;0.20;0.20;;;;;;;16.79;61.96;101973.41;5050900;28;20033;-77
2023/06/08 06:42:48;;;;;;;0.15;0.15;;;;;;;16.83;61.57;101968.84;5052345;28;20062;-78
2023/06/08 06:45:14;;;;;;;0.68;0.63;;;;;;;16.86;61.59;101962.53;5052924;28;20033;-76
2023/06/08 06:47:40;;;;;;;0.40;0.40;;;;;;;16.89;61.87;101966.00;5058323;28;20088;-79
2023/06/08 06:50:06;;;;;;;0.40;0.40;;;;;;;16.89;61.83;101967.81;5063975;28;20044;-78
2023/06/08 06:52:33;;;;;;;0.57;0.57;;;;;;;16.94;61.61;101976.63;5064987;28;20029;-78
2023/06/08 06:55:02;;;;;;;0.40;0.40;;;;;;;17.05;61.49;101968.28;5064064;28;20066;-76
2023/06/08 06:57:31;;;;;;;0.10;0.10;;;;;;;17.28;60.95;101976.50;5065287;28;20028;-79
2023/06/08 06:59:57;;;;;;;0.10;0.10;;;;;;;17.42;60.85;101968.03;5059511;28;20093;-78
2023/06/08 07:02:25;;;;;;;1.38;1.27;;;;;;;17.56;60.55;101974.78;5058907;28;20036;-79
2023/06/08 07:04:54;;;;;;;0.22;0.22;;;;;;;17.64;60.40;101967.34;5060940;28;20029;-78
2023/06/08 07:07:20;;;;;;;0.70;0.70;;;;;;;17.76;60.09;101977.69;5063647;28;20028;-78
2023/06/08 07:09:46;;;;;;;0.30;0.30;;;;;;;17.87;59.77;101973.78;5061265;28;20062;-80
2023/06/08 07:12:12;;;;;;;0.50;0.50;;;;;;;17.94;59.42;101975.38;5065405;28;20033;-79
2023/06/08 07:14:38;;;;;;;0.45;0.45;;;;;;;18.02;59.66;101978.69;5062055;28;20695;-79
2023/06/08 07:17:05;;;;;;;0.25;0.25;;;;;;;17.94;58.71;101980.72;5064376;28;20028;-77
2023/06/08 07:19:33;;;;;;;0.10;0.10;;;;;;;17.87;58.85;101984.50;5065280;28;20082;-77
2023/06/08 07:21:59;;;;;;;0.30;0.30;;;;;;;17.77;59.41;101979.44;5057134;28;20040;-78
2023/06/08 07:24:25;;;;;;;0.10;0.10;;;;;;;17.79;59.77;101977.59;5062851;28;20462;-79
2023/06/08 07:26:51;;;;;;;0.10;0.10;;;;;;;17.76;59.53;101972.31;5062730;28;20028;-79
2023/06/08 07:29:17;;;;;;;0.20;0.20;;;;;;;17.78;59.54;101974.94;5062991;28;20017;-80
2023/06/08 07:31:43;;;;;;;0.22;0.22;;;;;;;17.88;59.87;101970.19;5058522;28;20028;-79
2023/06/08 07:34:09;;;;;;;0.13;0.13;;;;;;;18.04;59.80;101970.59;5064092;28;20041;-78
2023/06/08 07:36:36;;;;;;;0.10;0.10;;;;;;;18.16;60.01;101969.31;5056060;28;20025;-80
2023/06/08 07:39:03;;;;;;;0.10;0.10;;;;;;;18.34;59.20;101965.09;5061036;28;20025;-78
2023/06/08 07:41:30;;;;;;;0.10;0.10;;;;;;;18.54;59.13;101961.72;5062056;28;20029;-79
2023/06/08 07:43:56;;;;;;;0.20;0.20;;;;;;;18.79;58.90;101955.47;5063132;28;20021;-78
2023/06/08 07:46:23;;;;;;;0.22;0.22;;;;;;;19.10;58.44;101951.66;5055563;28;20033;-77
2023/06/08 07:48:49;;;;;;;0.20;0.20;;;;;;;19.34;57.41;101955.19;5063598;28;20021;-76
2023/06/08 07:51:15;;;;;;;0.10;0.10;;;;;;;19.44;56.45;101953.91;5064802;28;20040;-77
2023/06/08 07:53:42;;;;;;;0.20;0.20;;;;;;;19.52;55.88;101948.22;5065154;28;20063;-82
2023/06/08 07:56:08;;;;;;;0.10;0.10;;;;;;;19.55;56.44;101948.97;5064370;28;20028;-76
2023/06/08 07:58:34;;;;;;;0.35;0.35;;;;;;;19.64;56.70;101957.59;5063694;28;20088;-78
2023/06/08 08:01:01;;;;;;;0.43;0.43;;;;;;;19.66;56.10;101945.84;5063724;28;20040;-78
2023/06/08 08:03:28;;;;;;;0.30;0.30;;;;;;;19.67;56.07;101952.09;5063667;28;20032;-78
2023/06/08 08:05:55;;;;;;;0.10;0.10;;;;;;;19.74;55.47;101942.84;5062326;28;20079;-78
2023/06/08 08:08:21;;;;;;;1.75;1.65;;;;;;;19.76;55.23;101942.78;5064015;28;20025;-78
2023/06/08 08:10:47;;;;;;;0.15;0.15;;;;;;;19.73;55.53;101941.97;5062491;28;20051;-78
2023/06/08 08:13:14;;;;;;;0.10;0.10;;;;;;;19.78;55.50;101943.59;5058377;28;20033;-76
2023/06/08 08:15:40;;;;;;;1.48;1.38;;;;;;;19.81;54.90;101946.16;5055508;28;20036;-76
2023/06/08 08:18:06;;;;;;;0.45;0.45;;;;;;;19.96;54.85;101952.75;5062711;28;20028;-79
2023/06/08 08:20:33;;;;;;;0.10;0.10;;;;;;;20.02;54.50;101949.78;5056856;28;20036;-78
2023/06/08 08:22:59;;;;;;;0.80;0.75;;;;;;;19.96;54.67;101950.06;5055691;28;20021;-75
2023/06/08 08:25:25;;;;;;;0.77;0.77;;;;;;;20.12;54.51;101950.28;5053307;28;20040;-77
2023/06/08 08:27:51;;;;;;;0.70;0.70;;;;;;;20.10;54.07;101947.66;5044674;28;20487;-77
2023/06/08 08:30:17;;;;;;;0.38;0.38;;;;;;;20.00;54.05;101949.88;5046589;28;20031;-77
2023/06/08 08:32:43;;;;;;;0.45;0.45;;;;;;;20.11;54.05;101951.22;5053855;28;20025;-77
2023/06/08 08:35:10;;;;;;;0.13;0.13;;;;;;;20.08;52.90;101954.06;5051583;28;20087;-78
2023/06/08 08:37:36;;;;;;;0.17;0.17;;;;;;;20.05;53.34;101947.00;5055619;28;20060;-77
2023/06/08 08:40:03;;;;;;;3.42;3.03;;;;;;;20.12;53.60;101961.03;5056685;28;20116;-77
2023/06/08 08:42:32;;;;;;;3.10;0.85;;;;;;;20.17;53.52;101950.97;5056845;28;20032;-78
2023/06/08 08:45:00;;;;;;;0.15;0.15;;;;;;;20.24;53.64;101951.56;5061377;28;20056;-76
2023/06/08 08:47:29;;;;;;;0.10;0.10;;;;;;;20.23;53.75;101950.69;5057283;28;20017;-76
2023/06/08 08:50:04;;;;;;;0.10;0.10;;;;;;;20.26;53.27;101949.69;5053019;28;20104;-76
2023/06/08 08:52:33;;;;;;;0.28;0.28;;;;;;;20.24;53.92;101947.06;5052264;28;20524;-76
2023/06/08 08:55:00;;;;;;;0.52;0.52;;;;;;;20.38;54.60;101953.69;5040394;28;20056;-76
2023/06/08 08:57:28;;;;;;;0.10;0.10;;;;;;;20.25;53.82;101943.44;5050761;28;20033;-77
2023/06/08 08:59:55;;;;;;;0.13;0.13;;;;;;;20.30;52.97;101951.28;5049323;28;20025;-76
2023/06/08 09:02:22;;;;;;;0.40;0.40;;;;;;;20.42;53.24;101947.22;5051393;28;20450;-77
2023/06/08 09:04:48;;;;;;;0.47;0.40;;;;;;;20.44;53.52;101948.03;5051035;28;20521;-77
2023/06/08 09:07:19;;;;;;;0.10;0.10;;;;;;;20.50;53.29;101947.75;5053534;28;20067;-77
2023/06/08 09:12:51;;;;;;;0.75;0.75;;;;;;;20.66;52.73;101946.13;5129486;27;20390;-77
2023/06/08 09:15:28;;;;;;;0.35;0.35;;;;;;;20.82;52.26;101949.03;5127814;27;20512;-77
2023/06/08 09:17:55;;;;;;;0.10;0.10;;;;;;;20.90;53.74;101945.97;5128734;27;20019;-77
2023/06/08 09:23:24;;;;;;;0.10;0.10;;;;;;;21.19;52.11;101932.09;5100957;27;1187072;-77
2023/06/08 09:25:52;;;;;;;1.20;0.57;;;;;;;21.23;52.62;101931.84;5117577;28;20023;-77
2023/06/08 09:28:24;;;;;;;0.30;0.30;;;;;;;21.42;54.33;101931.84;5112785;28;20074;-76
2023/06/08 09:30:51;;;;;;;0.30;0.30;;;;;;;21.52;52.72;101932.28;5101491;28;20046;-76
2023/06/08 09:33:20;;;;;;;0.13;0.13;;;;;;;21.49;51.61;101938.69;5107956;28;20020;-76
2023/06/08 09:35:47;;;;;;;0.15;0.15;;;;;;;21.63;51.23;101929.06;5107282;28;20480;-76
2023/06/08 09:38:19;;;;;;;0.13;0.13;;;;;;;21.80;52.48;101939.03;5107761;28;20020;-76
2023/06/08 09:40:46;;;;;;;1.60;0.70;;;;;;;21.98;52.46;101934.50;5104008;28;20024;-75
2023/06/08 09:43:28;;;;;;;0.15;0.15;;;;;;;22.08;52.06;101930.41;5107946;28;20042;-77
2023/06/08 09:45:54;;;;;;;0.57;0.57;;;;;;;22.22;50.93;101921.59;5103078;28;20055;-76
2023/06/08 09:48:20;;;;;;;0.22;0.22;;;;;;;22.23;50.14;101926.06;5107721;28;20027;-76
2023/06/08 09:50:47;;;;;;;0.20;0.20;;;;;;;22.31;50.64;101922.94;5107968;28;20096;-76
2023/06/08 09:53:15;;;;;;;0.57;0.57;;;;;;;22.35;50.23;101923.66;5106985;28;20020;-76
2023/06/08 09:55:43;;;;;;;0.05;0.05;;;;;;;22.40;51.13;101918.91;5099709;28;20035;-76
2023/06/08 09:58:10;;;;;;;3.50;0.45;;;;;;;22.49;49.99;101907.59;5107724;28;20171;-77
2023/06/08 10:00:37;;;;;;;0.20;0.20;;;;;;;22.64;51.59;101913.16;5099784;28;20487;-76
2023/06/08 10:05:45;;;;;;;0.55;0.55;;;;;;;22.89;50.30;101905.47;5090694;28;20918;-76
2023/06/08 10:08:16;;;;;;;0.35;0.35;;;;;;;22.93;50.70;101904.31;5080831;28;20024;-77
2023/06/08 10:10:42;;;;;;;1.80;0.85;;;;;;;22.80;49.26;101911.34;5088801;28;20032;-77
2023/06/08 10:13:11;;;;;;;0.20;0.20;;;;;;;22.88;49.21;101910.94;5080031;28;20020;-76
2023/06/08 10:15:38;;;;;;;2.70;1.13;;;;;;;22.99;50.16;101911.22;5085599;28;20105;-77
2023/06/08 10:18:05;;;;;;;1.35;0.52;;;;;;;23.03;50.54;101910.09;5087815;28;20103;-77
2023/06/08 10:20:32;;;;;;;0.43;0.43;;;;;;;23.18;49.41;101908.41;5088451;28;20073;-77
2023/06/08 10:23:00;;;;;;;0.40;0.40;;;;;;;23.31;48.79;101905.00;5089131;28;20103;-77
2023/06/08 10:25:28;;;;;;;0.10;0.10;;;;;;;23.45;49.97;101901.50;5086707;28;20028;-77
2023/06/08 10:27:56;;;;;;;0.20;0.20;;;;;;;23.52;48.15;101909.16;5088460;28;20037;-76
2023/06/08 10:33:20;;;;;;;0.30;0.30;;;;;;;23.46;48.47;101895.13;5109022;27;20395;-77
2023/06/08 10:36:07;;;;;;;0.80;0.80;;;;;;;23.61;49.17;101899.63;5108340;28;20028;-76
2023/06/08 10:38:54;;;;;;;1.27;1.20;;;;;;;23.67;49.04;101901.97;5091371;28;20021;-77
2023/06/08 10:41:41;;;;;;;0.10;0.10;;;;;;;23.68;49.68;101892.91;5088764;28;20016;-76
2023/06/08 10:44:25;;;;;;;1.17;1.17;;;;;;;23.81;49.23;101893.03;5087525;28;20036;-77
2023/06/08 10:46:59;;;;;;;0.52;0.52;;;;;;;23.90;49.18;101897.91;5088394;28;20055;-77
2023/06/08 10:49:30;;;;;;;0.75;0.55;;;;;;;23.88;47.93;101890.84;5092194;28;20023;-77
2023/06/08 10:51:57;;;;;;;0.10;0.10;;;;;;;24.09;48.06;101891.44;5092711;28;20029;-77
2023/06/08 10:54:24;;;;;;;0.32;0.32;;;;;;;24.19;48.68;101892.59;5093153;28;20031;-77
2023/06/08 10:56:52;;;;;;;0.80;0.80;;;;;;;24.20;47.00;101886.22;5091279;28;20090;-77
2023/06/08 10:59:31;;;;;;;0.03;0.03;;;;;;;24.27;45.81;101872.31;5087495;28;20042;-75
2023/06/08 11:02:05;;;;;;;0.10;0.10;;;;;;;24.32;46.88;101875.59;5087841;28;20032;-76
2023/06/08 11:04:33;;;;;;;0.20;0.20;;;;;;;24.43;47.53;101873.09;5086821;28;20473;-76
2023/06/08 11:07:02;;;;;;;0.45;0.45;;;;;;;24.53;46.83;101867.97;5087045;28;20401;-76
2023/06/08 11:09:31;;;;;;;0.00;0.00;;;;;;;24.58;46.89;101862.28;5088183;28;20054;-76
2023/06/08 11:11:58;;;;;;;0.65;0.65;;;;;;;24.67;46.86;101864.41;5087749;28;20055;-75
2023/06/08 11:14:24;;;;;;;0.50;0.50;;;;;;;24.69;46.29;101868.75;5086879;28;20030;-77
2023/06/08 11:16:51;;;;;;;0.20;0.20;;;;;;;24.55;46.82;101861.50;5086816;28;20269;-77
2023/06/08 11:19:18;;;;;;;0.63;0.63;;;;;;;24.71;46.37;101855.09;5088449;28;20091;-77
2023/06/08 11:21:46;;;;;;;0.43;0.43;;;;;;;24.73;46.48;101855.88;5088166;28;20089;-76
2023/06/08 11:24:15;;;;;;;0.28;0.28;;;;;;;24.82;46.38;101846.28;5088730;28;20031;-76
2023/06/08 11:26:41;;;;;;;0.98;0.65;;;;;;;24.84;45.89;101850.66;5095038;28;20035;-76
2023/06/08 11:29:07;;;;;;;0.20;0.20;;;;;;;25.02;45.52;101845.00;5086111;28;20020;-77
2023/06/08 11:31:40;;;;;;;0.20;0.20;;;;;;;25.07;46.74;101848.28;5087116;28;20028;-77
2023/06/08 11:34:07;;;;;;;0.80;0.80;;;;;;;25.12;46.30;101843.44;5087681;28;20063;-77
2023/06/08 11:36:35;;;;;;;0.20;0.20;;;;;;;25.19;45.76;101839.31;5087771;28;20511;-76
2023/06/08 11:39:03;;;;;;;0.10;0.10;;;;;;;25.39;46.29;101842.59;5101816;28;20025;-77
2023/06/08 11:41:30;;;;;;;3.10;1.38;;;;;;;25.56;46.07;101829.72;5092913;28;20017;-77
2023/06/08 11:43:57;;;;;;;1.33;1.02;;;;;;;25.63;45.25;101825.63;5081267;28;20044;-77
2023/06/08 11:46:24;;;;;;;0.10;0.10;;;;;;;25.60;46.11;101817.69;5071214;28;20109;-75
2023/06/08 11:48:50;;;;;;;0.10;0.10;;;;;;;25.71;44.58;101827.81;5074044;28;20031;-76